createdAt,value
2023-05-04T00:02:25.910Z,101456.69
2023-05-04T00:04:53.548Z,101445.25
2023-05-04T00:07:21.079Z,101450.41
2023-05-04T00:09:50.287Z,101451.22
2023-05-04T00:12:17.878Z,101447.72
2023-05-04T00:14:44.949Z,101444.25
2023-05-04T00:17:12.865Z,101452.06
2023-05-04T00:19:42.382Z,101457.97
2023-05-04T00:22:09.667Z,101454.50
2023-05-04T00:24:36.843Z,101454.50
2023-05-04T00:27:04.083Z,101454.44
2023-05-04T00:29:31.404Z,101450.88
2023-05-04T00:31:58.491Z,101452.50
2023-05-04T00:34:25.651Z,101461.13
2023-05-04T00:36:52.880Z,101450.03
2023-05-04T00:39:19.966Z,101449.09
2023-05-04T00:41:47.124Z,101447.28
2023-05-04T00:44:14.411Z,101443.03
2023-05-04T00:46:41.731Z,101448.19
2023-05-04T00:49:09.218Z,101450.75
2023-05-04T00:51:37.096Z,101438.69
2023-05-04T00:54:05.497Z,101448.00
2023-05-04T00:56:34.132Z,101447.09
2023-05-04T00:59:01.132Z,101446.13
2023-05-04T01:01:28.414Z,101445.16
2023-05-04T01:03:56.657Z,101442.50
2023-05-04T01:06:42.127Z,101446.75
2023-05-04T01:09:21.857Z,101438.06
2023-05-04T01:12:15.730Z,101449.94
2023-05-04T01:14:44.063Z,101448.09
2023-05-04T01:17:12.290Z,101454.84
2023-05-04T01:19:39.437Z,101449.38
2023-05-04T01:22:06.651Z,101450.91
2023-05-04T01:24:34.137Z,101445.75
2023-05-04T01:27:19.318Z,101446.50
2023-05-04T01:29:49.528Z,101446.22
2023-05-04T01:32:19.745Z,101441.72
2023-05-04T01:34:46.925Z,101447.81
2023-05-04T01:37:14.034Z,101446.75
2023-05-04T01:39:41.295Z,101448.44
2023-05-04T01:42:08.390Z,101440.66
2023-05-04T01:44:35.708Z,101440.00
2023-05-04T01:47:02.962Z,101432.31
2023-05-04T01:49:30.026Z,101441.00
2023-05-04T01:51:57.076Z,101440.81
2023-05-04T01:54:25.277Z,101436.47
2023-05-04T01:56:52.350Z,101441.59
2023-05-04T01:59:19.671Z,101438.16
2023-05-04T02:01:46.850Z,101431.09
2023-05-04T02:04:14.058Z,101436.09
2023-05-04T02:06:41.468Z,101430.69
2023-05-04T02:09:08.669Z,101439.25
2023-05-04T02:11:35.756Z,101437.53
2023-05-04T02:14:02.986Z,101434.03
2023-05-04T02:16:30.105Z,101435.53
2023-05-04T02:18:57.386Z,101435.47
2023-05-04T02:21:24.478Z,101433.56
2023-05-04T02:23:51.997Z,101435.31
2023-05-04T02:26:18.966Z,101436.97
2023-05-04T02:28:46.086Z,101435.31
2023-05-04T02:31:13.155Z,101436.91
2023-05-04T02:33:40.194Z,101424.84
2023-05-04T02:36:08.999Z,101428.25
2023-05-04T02:38:36.193Z,101435.03
2023-05-04T02:41:04.022Z,101429.91
2023-05-04T02:43:31.047Z,101434.19
2023-05-04T02:46:00.010Z,101429.91
2023-05-04T02:48:27.133Z,101423.13
2023-05-04T02:50:54.203Z,101414.47
2023-05-04T02:53:21.198Z,101412.69
2023-05-04T02:55:48.576Z,101421.19
2023-05-04T02:58:15.609Z,101431.47
2023-05-04T03:00:42.704Z,101428.03
2023-05-04T03:03:09.779Z,101426.34
2023-05-04T03:05:36.961Z,101422.97
2023-05-04T03:08:04.126Z,101429.75
2023-05-04T03:10:31.300Z,101432.25
2023-05-04T03:12:58.370Z,101424.44
2023-05-04T03:15:25.449Z,101425.31
2023-05-04T03:17:52.851Z,101428.00
2023-05-04T03:20:19.984Z,101428.00
2023-05-04T03:22:46.969Z,101432.16
2023-05-04T03:25:13.992Z,101420.88
2023-05-04T03:27:41.204Z,101430.41
2023-05-04T03:30:08.849Z,101430.41
2023-05-04T03:32:37.109Z,101424.19
2023-05-04T03:35:24.585Z,101413.72
2023-05-04T03:37:54.250Z,101420.50
2023-05-04T03:40:23.260Z,101423.97
2023-05-04T03:42:52.896Z,101422.25
2023-05-04T03:45:22.263Z,101425.81
2023-05-04T03:47:49.353Z,101427.59
2023-05-04T03:50:16.431Z,101423.38
2023-05-04T03:52:43.447Z,101424.19
2023-05-04T03:55:11.700Z,101427.66
2023-05-04T03:57:39.010Z,101425.16
2023-05-04T04:00:06.928Z,101438.25
2023-05-04T04:02:42.130Z,101429.81
2023-05-04T04:05:16.018Z,101428.25
2023-05-04T04:07:43.411Z,101416.31
2023-05-04T04:10:10.891Z,101419.91
2023-05-04T04:12:38.032Z,101416.31
2023-05-04T04:15:05.404Z,101433.56
2023-05-04T04:17:32.529Z,101424.19
2023-05-04T04:19:59.648Z,101425.03
2023-05-04T04:22:27.415Z,101419.91
2023-05-04T04:24:54.438Z,101427.84
2023-05-04T04:27:21.510Z,101425.66
2023-05-04T04:29:48.728Z,101414.53
2023-05-04T04:32:15.834Z,101420.03
2023-05-04T04:34:42.869Z,101421.13
2023-05-04T04:37:09.885Z,101410.28
2023-05-04T04:39:36.848Z,101411.44
2023-05-04T04:42:04.052Z,101421.94
2023-05-04T04:44:31.083Z,101414.41
2023-05-04T04:46:58.311Z,101403.44
2023-05-04T04:49:26.215Z,101419.34
2023-05-04T04:51:53.326Z,101425.56
2023-05-04T04:54:20.870Z,101424.88
2023-05-04T04:56:48.192Z,101423.34
2023-05-04T04:59:15.304Z,101423.47
2023-05-04T05:01:42.576Z,101421.97
2023-05-04T05:04:09.792Z,101423.88
2023-05-04T05:06:37.012Z,101411.16
2023-05-04T05:09:04.418Z,101427.63
2023-05-04T05:11:32.837Z,101412.31
2023-05-04T05:14:00.115Z,101417.53
2023-05-04T05:16:27.614Z,101424.66
2023-05-04T05:18:54.695Z,101426.53
2023-05-04T05:21:21.966Z,101428.41
2023-05-04T05:23:49.098Z,101433.69
2023-05-04T05:26:16.326Z,101424.47
2023-05-04T05:28:43.401Z,101427.13
2023-05-04T05:31:10.665Z,101441.94
2023-05-04T05:33:37.894Z,101434.31
2023-05-04T05:36:06.252Z,101432.66
2023-05-04T05:38:33.426Z,101424.19
2023-05-04T05:41:00.538Z,101427.81
2023-05-04T05:43:27.781Z,101432.28
2023-05-04T05:45:55.003Z,101422.91
2023-05-04T05:48:22.055Z,101433.41
2023-05-04T05:50:49.119Z,101432.66
2023-05-04T05:53:16.246Z,101426.81
2023-05-04T05:55:43.277Z,101436.41
2023-05-04T05:58:10.492Z,101439.94
2023-05-04T06:00:37.624Z,101423.66
2023-05-04T06:03:04.738Z,101426.41
2023-05-04T06:05:34.410Z,101418.78
2023-05-04T06:08:01.808Z,101424.06
2023-05-04T06:10:28.915Z,101431.16
2023-05-04T06:12:56.058Z,101427.84
2023-05-04T06:15:23.179Z,101431.44
2023-05-04T06:17:50.304Z,101423.75
2023-05-04T06:20:17.422Z,101428.16
2023-05-04T06:22:44.867Z,101428.25
2023-05-04T06:25:12.140Z,101423.19
2023-05-04T06:27:39.510Z,101426.72
2023-05-04T06:30:08.272Z,101420.72
2023-05-04T06:32:35.686Z,101425.97
2023-05-04T06:35:02.946Z,101425.13
2023-05-04T06:37:30.156Z,101413.91
2023-05-04T06:39:57.318Z,101425.16
2023-05-04T06:42:24.420Z,101419.91
2023-05-04T06:44:53.660Z,101422.53
2023-05-04T06:47:20.987Z,101423.38
2023-05-04T06:49:48.131Z,101418.13
2023-05-04T06:52:15.240Z,101411.13
2023-05-04T06:54:42.407Z,101407.59
2023-05-04T06:57:09.566Z,101408.41
2023-05-04T06:59:36.743Z,101415.31
2023-05-04T07:02:03.879Z,101414.38
2023-05-04T07:04:32.118Z,101409.06
2023-05-04T07:06:59.237Z,101402.91
2023-05-04T07:09:26.378Z,101407.13
2023-05-04T07:11:53.501Z,101410.47
2023-05-04T07:14:21.971Z,101406.91
2023-05-04T07:16:49.225Z,101399.81
2023-05-04T07:19:16.427Z,101399.72
2023-05-04T07:21:43.520Z,101403.06
2023-05-04T07:24:10.656Z,101399.44
2023-05-04T07:26:37.759Z,101394.97
2023-05-04T07:29:04.888Z,101399.09
2023-05-04T07:31:32.083Z,101397.19
2023-05-04T07:33:59.500Z,101391.75
2023-05-04T07:36:27.980Z,101391.69
2023-05-04T07:38:55.039Z,101398.56
2023-05-04T07:41:22.247Z,101387.97
2023-05-04T07:43:49.270Z,101394.75
2023-05-04T07:46:16.752Z,101390.28
2023-05-04T07:48:43.950Z,101392.66
2023-05-04T07:51:14.972Z,101394.13
2023-05-04T07:53:43.329Z,101391.19
2023-05-04T07:56:11.808Z,101388.31
2023-05-04T07:58:39.485Z,101386.41
2023-05-04T08:01:06.698Z,101391.56
2023-05-04T08:03:34.142Z,101383.59
2023-05-04T08:06:01.336Z,101384.25
2023-05-04T08:08:28.834Z,101385.72
2023-05-04T08:11:02.015Z,101379.41
2023-05-04T08:13:35.521Z,101387.06
2023-05-04T08:16:03.015Z,101375.63
2023-05-04T08:18:30.437Z,101378.06
2023-05-04T08:20:58.534Z,101374.56
2023-05-04T08:23:26.038Z,101380.53
2023-05-04T08:25:53.259Z,101380.53
2023-05-04T08:28:20.374Z,101384.78
2023-05-04T08:30:47.530Z,101381.13
2023-05-04T08:33:14.711Z,101380.75
2023-05-04T08:35:41.816Z,101371.94
2023-05-04T08:38:08.943Z,101378.81
2023-05-04T08:40:36.037Z,101383.78
2023-05-04T08:43:03.963Z,101380.03
2023-05-04T08:45:31.670Z,101384.22
2023-05-04T08:47:58.987Z,101377.19
2023-05-04T08:50:26.381Z,101375.94
2023-05-04T08:52:53.725Z,101365.66
2023-05-04T08:55:21.350Z,101365.50
2023-05-04T08:57:50.087Z,101386.97
2023-05-04T09:00:19.124Z,101378.91
2023-05-04T09:02:47.283Z,101379.66
2023-05-04T09:05:15.053Z,101378.38
2023-05-04T09:07:42.160Z,101375.53
2023-05-04T09:10:09.971Z,101376.19
2023-05-04T09:12:38.176Z,101367.19
2023-05-04T09:15:19.098Z,101379.16
2023-05-04T09:18:18.633Z,101380.81
2023-05-04T09:20:47.503Z,101380.72
2023-05-04T09:23:15.924Z,101378.66
2023-05-04T09:25:53.882Z,101369.88
2023-05-04T09:28:33.583Z,101360.81
2023-05-04T09:31:01.596Z,101358.91
2023-05-04T09:33:29.744Z,101363.81
2023-05-04T09:35:58.460Z,101361.97
2023-05-04T09:38:26.891Z,101354.41
2023-05-04T09:40:54.162Z,101362.03
2023-05-04T09:43:21.324Z,101364.25
2023-05-04T09:45:48.907Z,101364.25
2023-05-04T09:48:27.229Z,101359.69
2023-05-04T09:50:56.308Z,101348.56
2023-05-04T09:53:28.623Z,101345.78
2023-05-04T09:56:20.479Z,101340.06
2023-05-04T09:58:49.425Z,101335.22
2023-05-04T10:01:17.452Z,101331.66
2023-05-04T10:03:44.772Z,101324.59
2023-05-04T10:06:12.602Z,101327.19
2023-05-04T10:08:41.476Z,101331.50
2023-05-04T10:11:08.779Z,101323.47
2023-05-04T10:13:35.922Z,101334.63
2023-05-04T10:16:30.300Z,101330.84
2023-05-04T10:19:41.378Z,101322.97
2023-05-04T10:22:20.457Z,101330.22
2023-05-04T10:25:19.400Z,101315.03
2023-05-04T10:28:16.859Z,101314.94
2023-05-04T10:30:44.124Z,101313.34
2023-05-04T10:33:12.456Z,101317.94
2023-05-04T10:35:52.269Z,101305.75
2023-05-04T10:38:20.136Z,101314.00
2023-05-04T10:40:49.846Z,101309.34
2023-05-04T10:43:26.442Z,101294.78
2023-05-04T10:45:53.573Z,101303.91
2023-05-04T10:48:20.699Z,101298.53
2023-05-04T10:50:51.075Z,101297.75
2023-05-04T10:53:18.513Z,101303.09
2023-05-04T10:55:48.079Z,101287.94
2023-05-04T10:58:20.373Z,101291.47
2023-05-04T11:00:51.867Z,101281.03
2023-05-04T11:03:22.432Z,101281.66
2023-05-04T11:05:52.480Z,101287.50
2023-05-04T11:08:24.515Z,101266.72
2023-05-04T11:11:07.936Z,101270.16
2023-05-04T11:13:36.489Z,101257.81
2023-05-04T11:16:03.686Z,101257.59
2023-05-04T11:18:34.474Z,101263.81
2023-05-04T11:21:02.705Z,101261.78
2023-05-04T11:23:30.594Z,101263.69
2023-05-04T11:25:57.870Z,101261.88
2023-05-04T11:28:38.038Z,101265.09
2023-05-04T11:31:19.191Z,101252.47
2023-05-04T11:33:48.453Z,101270.38
2023-05-04T11:36:15.973Z,101266.84
2023-05-04T11:38:44.027Z,101254.63
2023-05-04T11:41:12.756Z,101257.69
2023-05-04T11:43:42.582Z,101255.41
2023-05-04T11:46:10.821Z,101248.13
2023-05-04T11:48:38.717Z,101254.88
2023-05-04T11:51:06.808Z,101250.44
2023-05-04T11:53:38.773Z,101242.56
2023-05-04T11:56:08.457Z,101246.81
2023-05-04T11:58:35.736Z,101239.22
2023-05-04T12:01:04.251Z,101251.47
2023-05-04T12:03:50.858Z,101246.41
2023-05-04T12:06:30.821Z,101241.16
2023-05-04T12:09:03.019Z,101239.44
2023-05-04T12:11:30.244Z,101246.41
2023-05-04T12:14:06.295Z,101234.06
2023-05-04T12:16:34.500Z,101235.91
2023-05-04T12:19:06.959Z,101229.75
2023-05-04T12:21:35.403Z,101224.66
2023-05-04T12:24:03.910Z,101227.91
2023-05-04T12:26:31.441Z,101228.72
2023-05-04T12:28:58.733Z,101229.03
2023-05-04T12:31:26.078Z,101222.47
2023-05-04T12:33:53.232Z,101231.97
2023-05-04T12:36:20.465Z,101224.19
2023-05-04T12:38:47.809Z,101227.84
2023-05-04T12:41:15.134Z,101215.81
2023-05-04T12:43:43.256Z,101219.13
2023-05-04T12:46:10.646Z,101213.88
2023-05-04T12:48:38.133Z,101206.97
2023-05-04T12:51:05.365Z,101205.09
2023-05-04T12:53:32.598Z,101203.59
2023-05-04T12:56:00.918Z,101209.84
2023-05-04T12:58:28.624Z,101210.81
2023-05-04T13:00:58.048Z,101193.53
2023-05-04T13:03:25.407Z,101197.00
2023-05-04T13:05:53.008Z,101196.88
2023-05-04T13:08:20.207Z,101208.06
2023-05-04T13:10:48.149Z,101203.94
2023-05-04T13:13:17.810Z,101197.66
2023-05-04T13:15:45.421Z,101196.13
2023-05-04T13:18:13.251Z,101197.75
2023-05-04T13:20:41.043Z,101187.16
2023-05-04T13:23:08.312Z,101175.91
2023-05-04T13:25:35.367Z,101181.25
2023-05-04T13:28:02.627Z,101176.19
2023-05-04T13:30:30.291Z,101166.66
2023-05-04T13:32:57.497Z,101164.66
2023-05-04T13:35:24.766Z,101149.81
2023-05-04T13:37:52.174Z,101152.44
2023-05-04T13:40:19.219Z,101151.59
2023-05-04T13:42:46.749Z,101149.22
2023-05-04T13:45:14.224Z,101145.75
2023-05-04T13:47:41.573Z,101145.88
2023-05-04T13:50:08.978Z,101153.84
2023-05-04T13:52:37.098Z,101139.19
2023-05-04T13:55:05.021Z,101142.00
2023-05-04T13:57:32.522Z,101136.94
2023-05-04T14:00:06.301Z,101140.34
2023-05-04T14:02:41.412Z,101132.50
2023-05-04T14:05:09.183Z,101134.41
2023-05-04T14:07:36.568Z,101138.03
2023-05-04T14:10:04.283Z,101131.16
2023-05-04T14:12:31.582Z,101134.78
2023-05-04T14:14:59.200Z,101136.63
2023-05-04T14:17:26.316Z,101132.41
2023-05-04T14:19:53.497Z,101134.22
2023-05-04T14:22:20.652Z,101130.03
2023-05-04T14:24:49.050Z,101128.13
2023-05-04T14:27:16.126Z,101125.53
2023-05-04T14:29:43.769Z,101115.94
2023-05-04T14:32:11.616Z,101115.22
2023-05-04T14:34:38.802Z,101116.19
2023-05-04T14:37:06.127Z,101114.50
2023-05-04T14:39:33.297Z,101106.75
2023-05-04T14:42:00.545Z,101099.63
2023-05-04T14:44:28.829Z,101097.06
2023-05-04T14:46:56.559Z,101097.94
2023-05-04T14:49:35.762Z,101097.06
2023-05-04T14:52:04.036Z,101100.84
2023-05-04T14:54:31.192Z,101092.44
2023-05-04T14:57:00.054Z,101099.56
2023-05-04T14:59:27.296Z,101092.78
2023-05-04T15:01:55.578Z,101091.94
2023-05-04T15:04:23.058Z,101085.91
2023-05-04T15:06:50.533Z,101084.09
2023-05-04T15:09:17.681Z,101078.06
2023-05-04T15:11:44.784Z,101079.13
2023-05-04T15:14:12.035Z,101084.63
2023-05-04T15:16:39.297Z,101086.63
2023-05-04T15:19:07.198Z,101087.72
2023-05-04T15:21:34.701Z,101086.13
2023-05-04T15:24:02.155Z,101080.97
2023-05-04T15:26:31.200Z,101085.38
2023-05-04T15:28:58.364Z,101082.91
2023-05-04T15:31:25.794Z,101075.00
2023-05-04T15:33:53.844Z,101071.50
2023-05-04T15:36:21.006Z,101070.66
2023-05-04T15:38:48.094Z,101065.47
2023-05-04T15:41:15.165Z,101071.50
2023-05-04T15:43:42.204Z,101074.13
2023-05-04T15:46:09.329Z,101056.78
2023-05-04T15:48:36.499Z,101055.84
2023-05-04T15:51:03.620Z,101059.28
2023-05-04T15:53:30.994Z,101054.06
2023-05-04T15:55:58.090Z,101049.75
2023-05-04T15:58:25.145Z,101053.38
2023-05-04T16:00:52.462Z,101056.09
2023-05-04T16:03:19.807Z,101045.81
2023-05-04T16:05:47.121Z,101046.69
2023-05-04T16:08:14.288Z,101040.00
2023-05-04T16:10:41.403Z,101042.59
2023-05-04T16:13:11.306Z,101039.38
2023-05-04T16:15:39.196Z,101041.13
2023-05-04T16:18:06.434Z,101041.19
2023-05-04T16:20:33.473Z,101044.69
2023-05-04T16:23:00.499Z,101051.72
2023-05-04T16:25:27.607Z,101040.44
2023-05-04T16:27:54.816Z,101037.91
2023-05-04T16:30:21.997Z,101038.78
2023-05-04T16:32:49.075Z,101038.03
2023-05-04T16:35:16.301Z,101032.97
2023-05-04T16:37:43.475Z,101033.09
2023-05-04T16:40:14.497Z,101028.03
2023-05-04T16:42:42.893Z,101022.88
2023-05-04T16:45:14.036Z,101021.22
2023-05-04T16:47:42.912Z,101021.28
2023-05-04T16:50:11.650Z,101012.66
2023-05-04T16:52:40.108Z,101009.22
2023-05-04T16:55:11.326Z,101016.19
2023-05-04T16:57:39.506Z,101016.22
2023-05-04T17:00:07.848Z,101011.09
2023-05-04T17:02:35.709Z,101021.69
2023-05-04T17:05:06.766Z,101018.22
2023-05-04T17:07:34.322Z,101014.84
2023-05-04T17:10:01.632Z,101010.69
2023-05-04T17:12:29.163Z,101009.00
2023-05-04T17:14:56.369Z,101006.63
2023-05-04T17:17:23.624Z,101020.59
2023-05-04T17:19:50.809Z,101015.53
2023-05-04T17:22:17.865Z,101012.16
2023-05-04T17:24:45.647Z,101007.00
2023-05-04T17:27:13.666Z,101008.78
2023-05-04T17:29:41.334Z,101003.63
2023-05-04T17:32:08.803Z,101014.06
2023-05-04T17:34:36.800Z,101012.47
2023-05-04T17:37:03.934Z,101022.84
2023-05-04T17:39:31.873Z,101022.00
2023-05-04T17:42:00.146Z,101022.91
2023-05-04T17:44:28.984Z,101024.75
2023-05-04T17:46:56.346Z,101023.00
2023-05-04T17:49:23.467Z,101022.34
2023-05-04T17:51:50.601Z,101025.94
2023-05-04T17:54:17.699Z,101031.28
2023-05-04T17:56:44.800Z,101025.28
2023-05-04T17:59:11.931Z,101035.00
2023-05-04T18:01:39.202Z,101031.72
2023-05-04T18:04:06.341Z,101030.91
2023-05-04T18:06:33.532Z,101027.66
2023-05-04T18:09:01.346Z,101037.25
2023-05-04T18:11:28.659Z,101040.00
2023-05-04T18:13:56.739Z,101040.13
2023-05-04T18:16:24.846Z,101041.03
2023-05-04T18:18:52.575Z,101048.91
2023-05-04T18:21:19.709Z,101052.50
2023-05-04T18:23:47.119Z,101051.72
2023-05-04T18:26:22.770Z,101054.38
2023-05-04T18:28:50.148Z,101052.72
2023-05-04T18:31:17.769Z,101043.34
2023-05-04T18:33:45.253Z,101047.66
2023-05-04T18:36:12.444Z,101049.47
2023-05-04T18:38:40.057Z,101046.13
2023-05-04T18:41:07.506Z,101053.09
2023-05-04T18:43:34.849Z,101049.66
2023-05-04T18:46:08.441Z,101053.13
2023-05-04T18:48:35.652Z,101058.38
2023-05-04T18:51:02.944Z,101054.97
2023-05-04T18:53:30.293Z,101043.78
2023-05-04T18:56:04.512Z,101062.00
2023-05-04T18:58:32.067Z,101062.00
2023-05-04T19:00:59.589Z,101063.81
2023-05-04T19:03:26.897Z,101063.84
2023-05-04T19:05:54.477Z,101067.34
2023-05-04T19:08:21.896Z,101065.66
2023-05-04T19:10:50.166Z,101063.97
2023-05-04T19:13:17.824Z,101064.00
2023-05-04T19:15:45.314Z,101069.22
2023-05-04T19:18:12.662Z,101075.31
2023-05-04T19:20:40.415Z,101076.19
2023-05-04T19:23:07.629Z,101081.41
2023-05-04T19:25:35.532Z,101080.56
2023-05-04T19:28:09.304Z,101074.50
2023-05-04T19:30:37.293Z,101075.44
2023-05-04T19:33:05.440Z,101084.13
2023-05-04T19:35:32.651Z,101079.84
2023-05-04T19:38:01.787Z,101083.38
2023-05-04T19:40:29.128Z,101086.00
2023-05-04T19:42:56.580Z,101079.94
2023-05-04T19:45:23.856Z,101083.41
2023-05-04T19:47:52.550Z,101078.16
2023-05-04T19:50:20.216Z,101079.94
2023-05-04T19:52:47.333Z,101081.69
2023-05-04T19:55:14.529Z,101072.19
2023-05-04T19:57:41.659Z,101084.38
2023-05-04T20:00:12.855Z,101074.06
2023-05-04T20:02:40.167Z,101075.84
2023-05-04T20:05:07.755Z,101078.47
2023-05-04T20:07:35.162Z,101079.34
2023-05-04T20:10:02.459Z,101080.19
2023-05-04T20:12:29.701Z,101083.63
2023-05-04T20:14:56.928Z,101075.88
2023-05-04T20:17:24.093Z,101071.56
2023-05-04T20:19:51.286Z,101075.88
2023-05-04T20:22:18.557Z,101076.75
2023-05-04T20:24:45.703Z,101074.97
2023-05-04T20:27:13.250Z,101082.78
2023-05-04T20:29:40.300Z,101081.88
2023-05-04T20:32:09.041Z,101066.31
2023-05-04T20:34:39.298Z,101067.16
2023-05-04T20:37:06.551Z,101070.59
2023-05-04T20:39:33.672Z,101067.19
2023-05-04T20:42:00.967Z,101075.88
2023-05-04T20:44:28.175Z,101070.66
2023-05-04T20:46:55.266Z,101067.22
2023-05-04T20:49:22.341Z,101066.34
2023-05-04T20:51:49.417Z,101062.03
2023-05-04T20:54:17.307Z,101070.66
2023-05-04T20:56:44.577Z,101072.38
2023-05-04T20:59:11.736Z,101066.34
2023-05-04T21:01:38.864Z,101069.88
2023-05-04T21:04:06.198Z,101063.06
2023-05-04T21:06:58.196Z,101075.28
2023-05-04T21:09:26.568Z,101070.16
2023-05-04T21:11:53.751Z,101064.16
2023-05-04T21:14:21.153Z,101071.16
2023-05-04T21:16:48.249Z,101068.63
2023-05-04T21:19:15.561Z,101060.00
2023-05-04T21:21:42.888Z,101066.91
2023-05-04T21:24:16.647Z,101066.94
2023-05-04T21:26:45.143Z,101062.66
2023-05-04T21:29:15.744Z,101071.28
2023-05-04T21:31:43.010Z,101065.25
2023-05-04T21:34:10.708Z,101066.16
2023-05-04T21:36:39.155Z,101077.41
2023-05-04T21:39:06.583Z,101079.09
2023-05-04T21:41:33.758Z,101080.00
2023-05-04T21:44:00.858Z,101074.00
2023-05-04T21:46:28.146Z,101078.28
2023-05-04T21:48:55.250Z,101079.19
2023-05-04T21:51:22.383Z,101077.47
2023-05-04T21:53:49.487Z,101080.94
2023-05-04T21:56:16.737Z,101092.16
2023-05-04T21:58:43.892Z,101091.31
2023-05-04T22:01:17.038Z,101083.53
2023-05-04T22:03:44.968Z,101074.91
2023-05-04T22:06:12.207Z,101086.16
2023-05-04T22:08:39.668Z,101084.44
2023-05-04T22:11:06.805Z,101080.16
2023-05-04T22:13:34.072Z,101099.16
2023-05-04T22:16:01.300Z,101095.69
2023-05-04T22:18:28.365Z,101100.00
2023-05-04T22:20:55.423Z,101104.34
2023-05-04T22:23:22.468Z,101101.75
2023-05-04T22:25:49.563Z,101098.28
2023-05-04T22:28:17.280Z,101093.09
2023-05-04T22:30:44.357Z,101091.34
2023-05-04T22:33:11.648Z,101098.25
2023-05-04T22:35:38.736Z,101089.59
2023-05-04T22:38:05.809Z,101095.66
2023-05-04T22:40:32.918Z,101101.72
2023-05-04T22:43:01.442Z,101095.66
2023-05-04T22:45:28.520Z,101096.56
2023-05-04T22:47:56.014Z,101093.13
2023-05-04T22:50:23.223Z,101087.06
2023-05-04T22:52:50.299Z,101087.03
2023-05-04T22:55:17.415Z,101092.25
2023-05-04T22:57:44.507Z,101086.22
2023-05-04T23:00:12.161Z,101090.50
2023-05-04T23:02:39.797Z,101091.38
2023-05-04T23:05:07.921Z,101094.00
2023-05-04T23:07:35.581Z,101091.38
2023-05-04T23:10:03.315Z,101099.16
2023-05-04T23:12:30.444Z,101095.72
2023-05-04T23:14:57.548Z,101097.44
2023-05-04T23:17:24.731Z,101103.47
2023-05-04T23:19:51.839Z,101093.94
2023-05-04T23:22:18.875Z,101091.34
2023-05-04T23:24:45.879Z,101095.69
2023-05-04T23:27:13.006Z,101097.41
2023-05-04T23:29:40.127Z,101100.84
2023-05-04T23:32:07.364Z,101096.53
2023-05-04T23:34:34.522Z,101089.59
2023-05-04T23:37:01.766Z,101086.16
2023-05-04T23:39:28.801Z,101088.75
2023-05-04T23:41:55.949Z,101086.19
2023-05-04T23:44:23.157Z,101079.25
2023-05-04T23:46:50.238Z,101088.72
2023-05-04T23:49:17.331Z,101077.50
2023-05-04T23:51:44.405Z,101084.38
2023-05-04T23:54:11.492Z,101085.22
2023-05-04T23:56:38.675Z,101080.91
2023-05-04T23:59:05.945Z,101081.78
